Time;durP1;ratioP1;P1;durP2;ratioP2;P2;SDS_P1;SDS_P2;PMS_P1;PMS_P2;Temp;Humidity;BMP_temperature;BMP_pressure;BME280_temperature;BME280_humidity;BME280_pressure;Samples;Min_cycle;Max_cycle;Signal;HPM_P1;HPM_P2
2021/05/29 00:02:11;;;;;;;6.55;5.03;;;;;;;13.34;67.89;100648.66;4864431;28;97064;-86
2021/05/29 00:04:37;;;;;;;6.07;5.10;;;;;;;13.32;67.72;100644.34;4880046;28;97039;-87
2021/05/29 00:07:03;;;;;;;8.63;4.55;;;;;;;13.29;67.58;100649.75;4863896;28;97539;-87
2021/05/29 00:09:29;;;;;;;6.95;4.70;;;;;;;13.26;67.95;100647.25;4863077;28;98383;-87
2021/05/29 00:11:54;;;;;;;9.90;4.65;;;;;;;13.23;67.82;100647.31;4877421;28;100603;-86
2021/05/29 00:14:20;;;;;;;8.02;4.80;;;;;;;13.38;67.54;100652.03;4895874;28;97299;-86
2021/05/29 00:16:46;;;;;;;8.05;4.75;;;;;;;13.27;68.11;100656.88;4875765;28;97505;-86
2021/05/29 00:19:11;;;;;;;10.35;5.10;;;;;;;13.24;68.60;100652.56;4878729;28;97106;-86
2021/05/29 00:21:37;;;;;;;6.82;4.68;;;;;;;13.24;67.71;100652.56;4863260;28;97712;-87
2021/05/29 00:24:03;;;;;;;6.43;4.38;;;;;;;13.17;67.94;100651.06;4878836;28;96686;-87
2021/05/29 00:26:28;;;;;;;12.18;5.13;;;;;;;13.18;68.07;100658.06;4879735;28;96590;-86
2021/05/29 00:28:54;;;;;;;7.78;4.68;;;;;;;13.21;68.11;100649.19;4862458;28;100168;-87
2021/05/29 00:31:19;;;;;;;7.22;4.82;;;;;;;13.22;67.77;100645.63;4863539;28;98200;-86
2021/05/29 00:33:45;;;;;;;5.35;4.22;;;;;;;13.21;68.48;100643.91;4878653;28;96623;-80
2021/05/29 00:36:11;;;;;;;10.38;4.43;;;;;;;13.24;67.84;100638.53;4875382;28;99896;-88
2021/05/29 00:38:36;;;;;;;11.60;4.50;;;;;;;13.24;67.83;100633.25;4863671;28;100431;-86
2021/05/29 00:41:09;;;;;;;6.00;4.32;;;;;;;13.16;68.07;100636.19;4863319;28;101185;-86
2021/05/29 00:43:35;;;;;;;10.63;4.20;;;;;;;13.13;67.58;100639.78;4868686;28;97104;-86
2021/05/29 00:46:02;;;;;;;7.18;4.47;;;;;;;13.20;67.53;100647.44;4882248;28;97194;-87
2021/05/29 00:48:27;;;;;;;6.85;4.20;;;;;;;13.13;67.38;100639.78;4864827;28;100465;-87
2021/05/29 00:50:59;;;;;;;6.82;3.90;;;;;;;13.14;67.65;100643.28;4883887;28;99756;-86
2021/05/29 00:53:25;;;;;;;11.10;4.72;;;;;;;13.06;67.88;100634.81;4869494;28;96596;-86
2021/05/29 00:55:52;;;;;;;6.93;4.05;;;;;;;13.12;67.80;100648.63;4863422;28;96958;-86
2021/05/29 00:58:17;;;;;;;7.30;3.85;;;;;;;13.14;67.22;100649.41;4879283;28;99921;-85
2021/05/29 01:00:43;;;;;;;6.70;4.30;;;;;;;13.07;67.12;100640.03;4878126;28;97467;-86
2021/05/29 01:03:09;;;;;;;7.88;3.97;;;;;;;13.11;66.77;100641.63;4861636;28;96948;-86
2021/05/29 01:05:35;;;;;;;5.75;3.72;;;;;;;13.07;66.88;100645.31;4864040;28;96897;-87
2021/05/29 01:08:01;;;;;;;8.30;4.05;;;;;;;13.03;67.20;100645.47;4861732;28;99615;-86
2021/05/29 01:10:26;;;;;;;5.15;4.13;;;;;;;13.00;67.22;100646.47;4878846;28;97343;-87
2021/05/29 01:12:53;;;;;;;6.95;4.22;;;;;;;12.99;66.87;100649.16;4846765;28;96605;-86
2021/05/29 01:15:21;;;;;;;10.50;4.60;;;;;;;12.90;67.19;100650.38;4848203;28;96750;-86
2021/05/29 01:17:47;;;;;;;9.63;4.72;;;;;;;12.90;67.39;100650.38;4860051;28;100317;-85
2021/05/29 01:20:13;;;;;;;20.05;4.53;;;;;;;12.81;67.33;100651.59;4862447;28;100856;-86
2021/05/29 01:22:42;;;;;;;8.50;4.97;;;;;;;12.77;67.67;100654.38;4878151;28;97112;-85
2021/05/29 01:25:21;;;;;;;9.32;5.28;;;;;;;12.80;67.27;100652.50;4878187;28;97348;-86
2021/05/29 01:27:59;;;;;;;10.77;4.90;;;;;;;12.79;67.63;100655.19;4878335;28;97644;-86
2021/05/29 01:30:25;;;;;;;13.98;5.18;;;;;;;12.77;67.00;100654.38;4879021;28;100417;-87
2021/05/29 01:32:51;;;;;;;10.32;4.88;;;;;;;12.89;66.61;100657.41;4862888;28;96649;-79
2021/05/29 01:35:16;;;;;;;11.43;4.75;;;;;;;12.82;66.85;100655.91;4863062;28;97305;-86
2021/05/29 01:37:42;;;;;;;6.88;4.50;;;;;;;12.82;66.57;100655.06;4862199;28;99754;-86
2021/05/29 01:40:09;;;;;;;7.88;4.47;;;;;;;12.74;67.21;100644.84;4878341;28;96813;-86
2021/05/29 01:42:36;;;;;;;14.05;4.97;;;;;;;12.78;66.41;100638.53;4866522;28;96668;-85
2021/05/29 01:45:04;;;;;;;12.35;5.05;;;;;;;12.69;66.72;100644.16;4867676;28;96658;-86
2021/05/29 01:47:31;;;;;;;11.57;4.78;;;;;;;12.67;67.50;100649.47;4870048;28;97142;-86
2021/05/29 01:49:57;;;;;;;7.68;4.95;;;;;;;12.64;66.72;100649.56;4886120;28;97094;-84
2021/05/29 01:52:46;;;;;;;10.07;4.93;;;;;;;12.63;67.17;100645.22;4889738;28;96910;-85
2021/05/29 01:55:11;;;;;;;9.82;4.68;;;;;;;12.62;66.88;100648.81;4880103;28;96914;-86
2021/05/29 01:57:37;;;;;;;9.88;5.07;;;;;;;12.64;66.76;100654.00;4864971;28;99340;-86
2021/05/29 02:00:04;;;;;;;11.07;4.85;;;;;;;12.60;66.84;100645.34;4863453;28;99579;-85
2021/05/29 02:02:37;;;;;;;8.73;4.80;;;;;;;12.58;66.56;100652.44;4877329;28;96706;-84
2021/05/29 02:05:18;;;;;;;8.27;5.13;;;;;;;12.53;66.78;100656.16;4864319;28;96925;-85
2021/05/29 02:07:44;;;;;;;5.85;3.97;;;;;;;12.47;66.96;100659.88;4865072;28;99705;-84
2021/05/29 02:10:13;;;;;;;6.60;4.22;;;;;;;12.49;67.02;100657.19;4880502;28;96856;-84
2021/05/29 02:12:47;;;;;;;9.90;4.80;;;;;;;12.45;66.93;100659.09;4864944;28;96757;-83
2021/05/29 02:15:28;;;;;;;8.85;4.72;;;;;;;12.39;66.69;100661.91;4864681;28;96959;-83
2021/05/29 02:17:56;;;;;;;8.35;4.82;;;;;;;12.38;67.01;100658.44;4848731;28;99629;-78
2021/05/29 02:20:40;;;;;;;7.47;4.57;;;;;;;12.40;67.18;100656.63;4881168;28;96696;-82
2021/05/29 02:23:07;;;;;;;15.30;5.30;;;;;;;12.34;67.21;100661.25;4881345;28;97408;-84
2021/05/29 02:25:33;;;;;;;7.85;4.82;;;;;;;12.31;67.06;100661.38;4865389;28;97179;-83
2021/05/29 02:27:59;;;;;;;7.45;4.75;;;;;;;12.36;67.01;100665.56;4864236;28;98294;-83
2021/05/29 02:30:25;;;;;;;10.05;4.50;;;;;;;12.37;66.53;100661.13;4865845;28;99119;-83
2021/05/29 02:32:50;;;;;;;6.82;4.65;;;;;;;12.40;66.16;100656.63;4865847;28;97239;-83
2021/05/29 02:35:16;;;;;;;6.97;4.60;;;;;;;12.29;66.99;100658.78;4865562;28;97549;-81
2021/05/29 02:37:42;;;;;;;8.38;4.40;;;;;;;12.22;66.68;100658.13;4864876;28;99260;-81
2021/05/29 02:40:08;;;;;;;9.57;4.95;;;;;;;12.32;66.67;100665.69;4865436;28;96706;-82
2021/05/29 02:42:34;;;;;;;8.15;4.63;;;;;;;12.40;65.94;100661.88;4867256;28;96651;-82
2021/05/29 02:45:00;;;;;;;6.30;4.47;;;;;;;12.26;66.15;100656.25;4865290;28;96615;-82
2021/05/29 02:47:25;;;;;;;6.57;4.28;;;;;;;12.27;66.43;100662.38;4865600;28;98919;-84
2021/05/29 02:49:51;;;;;;;6.25;4.90;;;;;;;12.24;66.41;100663.31;4865934;28;96603;-83
2021/05/29 02:52:16;;;;;;;6.25;4.72;;;;;;;12.26;66.60;100679.94;4865968;28;96599;-84
2021/05/29 02:54:43;;;;;;;9.05;4.82;;;;;;;12.24;66.04;100674.72;4868246;28;96693;-81
2021/05/29 02:57:12;;;;;;;10.07;4.97;;;;;;;12.32;66.11;100679.72;4883367;28;96898;-82
2021/05/29 02:59:39;;;;;;;7.70;4.65;;;;;;;12.26;66.35;100687.84;4867865;28;99396;-82
2021/05/29 03:02:05;;;;;;;7.63;4.93;;;;;;;12.31;66.52;100685.06;4868338;28;96415;-82
2021/05/29 03:04:31;;;;;;;7.70;4.82;;;;;;;12.26;66.84;100689.59;4851378;28;97248;-83
2021/05/29 03:06:56;;;;;;;7.35;4.78;;;;;;;12.21;66.43;100685.34;4867125;28;97376;-79
2021/05/29 03:09:22;;;;;;;10.63;5.03;;;;;;;12.21;66.46;100693.25;4884303;28;97062;-82
2021/05/29 03:11:48;;;;;;;6.47;4.68;;;;;;;12.25;66.82;100696.66;4865273;28;97336;-83
2021/05/29 03:14:13;;;;;;;9.07;4.75;;;;;;;12.23;66.50;100699.31;4881539;28;96831;-83
2021/05/29 03:16:39;;;;;;;8.20;4.88;;;;;;;12.23;66.66;100691.44;4866645;28;99632;-82
2021/05/29 03:19:05;;;;;;;7.97;4.53;;;;;;;12.22;66.36;100704.66;4882782;28;97265;-84
2021/05/29 03:21:30;;;;;;;6.95;5.47;;;;;;;12.27;66.32;100693.94;4884073;28;96534;-82
2021/05/29 03:23:56;;;;;;;7.82;5.60;;;;;;;12.29;66.10;100692.13;4867686;28;96544;-84
2021/05/29 03:26:23;;;;;;;9.23;4.97;;;;;;;12.26;66.16;100693.09;4864238;28;99958;-82
2021/05/29 03:28:49;;;;;;;9.68;5.65;;;;;;;12.25;65.94;100696.66;4866411;28;99746;-84
2021/05/29 03:31:14;;;;;;;12.50;5.28;;;;;;;12.21;66.38;100703.78;4881497;28;96860;-83
2021/05/29 03:33:40;;;;;;;8.90;5.07;;;;;;;12.17;66.56;100702.16;4865729;28;96945;-83
2021/05/29 03:36:06;;;;;;;7.97;4.63;;;;;;;12.20;66.27;100719.63;4882714;28;99206;-82
2021/05/29 03:38:31;;;;;;;6.55;4.70;;;;;;;12.19;66.26;100712.66;4867665;28;96724;-82
2021/05/29 03:40:57;;;;;;;10.90;4.60;;;;;;;12.24;66.07;100706.28;4882288;28;96507;-81
2021/05/29 03:43:22;;;;;;;6.18;4.53;;;;;;;12.34;65.54;100711.25;4882898;28;96506;-82
2021/05/29 03:45:48;;;;;;;9.80;4.28;;;;;;;12.29;65.75;100716.69;4866539;28;96867;-83
2021/05/29 03:48:13;;;;;;;8.60;4.85;;;;;;;12.31;65.98;100711.38;4866103;28;96485;-83
2021/05/29 03:50:39;;;;;;;9.68;4.30;;;;;;;12.41;65.28;100708.34;4865054;28;96852;-82
2021/05/29 03:53:08;;;;;;;9.40;4.40;;;;;;;12.43;65.65;100710.94;4864357;28;96980;-81
2021/05/29 03:55:34;;;;;;;6.88;4.22;;;;;;;12.37;65.51;100709.38;4881239;28;96751;-83
2021/05/29 03:58:01;;;;;;;9.32;4.93;;;;;;;12.41;66.01;100712.75;4864474;28;99375;-79
2021/05/29 04:00:27;;;;;;;6.93;4.05;;;;;;;12.45;65.35;100704.69;4863065;28;96891;-83
2021/05/29 04:02:53;;;;;;;11.57;4.80;;;;;;;12.57;65.14;100703.41;4863652;28;97115;-85
2021/05/29 04:05:20;;;;;;;9.18;3.88;;;;;;;12.72;65.16;100711.66;4862444;28;99370;-84
2021/05/29 04:07:46;;;;;;;7.65;4.78;;;;;;;12.85;64.24;100710.28;4879394;28;100284;-86
2021/05/29 04:10:14;;;;;;;6.05;4.57;;;;;;;12.99;64.14;100715.88;4862452;28;96970;-87
2021/05/29 04:12:40;;;;;;;7.15;4.75;;;;;;;13.04;63.56;100707.81;4878388;28;97206;-86
2021/05/29 04:15:07;;;;;;;14.30;4.55;;;;;;;13.04;63.15;100699.91;4876517;28;97169;-85
2021/05/29 04:17:32;;;;;;;7.30;4.13;;;;;;;13.04;63.68;100713.94;4862846;28;97078;-87
2021/05/29 04:19:58;;;;;;;8.57;5.07;;;;;;;13.07;62.63;100711.19;4885032;28;97060;-86
2021/05/29 04:22:24;;;;;;;7.78;4.60;;;;;;;13.08;62.84;100707.63;4875402;28;97416;-86
2021/05/29 04:24:50;;;;;;;6.00;4.68;;;;;;;13.18;62.58;100704.63;4863699;28;100461;-84
2021/05/29 04:27:17;;;;;;;6.40;4.35;;;;;;;13.27;62.54;100709.59;4894641;28;96884;-87
2021/05/29 04:29:43;;;;;;;7.25;4.35;;;;;;;13.39;62.09;100709.13;4864110;28;96681;-87
2021/05/29 04:32:08;;;;;;;5.38;4.22;;;;;;;13.42;61.78;100703.72;4863797;28;96942;-87
2021/05/29 04:34:34;;;;;;;13.02;4.43;;;;;;;13.56;61.63;100709.31;4863311;28;100911;-87
2021/05/29 04:37:00;;;;;;;8.93;4.70;;;;;;;13.67;61.20;100710.63;4879772;28;97384;-87
2021/05/29 04:39:25;;;;;;;6.45;4.65;;;;;;;13.82;61.18;100720.59;4878055;28;96678;-88
2021/05/29 04:41:51;;;;;;;6.20;4.15;;;;;;;14.00;60.95;100716.31;4863041;28;97534;-87
2021/05/29 04:44:17;;;;;;;9.10;4.45;;;;;;;14.13;60.27;100716.66;4845559;28;100854;-86
2021/05/29 04:46:50;;;;;;;9.57;4.72;;;;;;;14.39;59.43;100721.66;4846216;28;100661;-85
2021/05/29 04:49:20;;;;;;;7.57;4.47;;;;;;;14.24;59.96;100720.56;4863361;28;97154;-86
2021/05/29 04:51:46;;;;;;;7.22;4.78;;;;;;;14.65;59.26;100720.56;4863104;28;97209;-87
2021/05/29 04:54:12;;;;;;;9.05;4.93;;;;;;;15.00;58.49;100723.38;4862253;28;98118;-87
2021/05/29 04:56:37;;;;;;;14.25;5.18;;;;;;;15.10;57.81;100714.13;4862341;28;101659;-85
2021/05/29 04:59:03;;;;;;;6.43;4.97;;;;;;;14.89;58.12;100723.91;4878897;28;96750;-87
2021/05/29 05:01:31;;;;;;;6.90;4.15;;;;;;;14.94;57.77;100721.88;4862070;28;96860;-87
2021/05/29 05:04:00;;;;;;;9.00;4.68;;;;;;;14.89;58.02;100725.66;4871574;28;100445;-86
2021/05/29 05:06:26;;;;;;;8.70;4.78;;;;;;;15.33;56.82;100720.09;4880567;28;101579;-86
2021/05/29 05:08:52;;;;;;;6.30;4.53;;;;;;;15.26;56.46;100711.59;4881276;28;96822;-87
2021/05/29 05:11:18;;;;;;;8.10;4.63;;;;;;;15.46;56.30;100713.28;4864551;28;97004;-87
2021/05/29 05:13:43;;;;;;;6.75;4.82;;;;;;;15.55;56.20;100718.13;4865801;28;102010;-87
2021/05/29 05:16:09;;;;;;;8.55;4.35;;;;;;;15.54;55.90;100719.09;4880632;28;101196;-87
2021/05/29 05:18:35;;;;;;;6.85;4.10;;;;;;;15.61;55.79;100712.53;4865810;28;96580;-87
2021/05/29 05:21:00;;;;;;;7.15;4.05;;;;;;;15.89;55.95;100715.69;4898818;28;97108;-87
2021/05/29 05:23:26;;;;;;;8.15;4.60;;;;;;;16.24;54.55;100709.44;4859392;28;101193;-86
2021/05/29 05:25:52;;;;;;;12.38;4.97;;;;;;;16.37;54.61;100719.41;4860790;28;101313;-86
2021/05/29 05:28:19;;;;;;;6.47;4.18;;;;;;;16.63;53.86;100720.69;4860352;28;96796;-85
2021/05/29 05:30:45;;;;;;;8.48;4.93;;;;;;;17.13;52.68;100718.00;4846798;28;97009;-86
2021/05/29 05:33:11;;;;;;;7.90;5.60;;;;;;;17.57;52.24;100713.78;4845462;28;100023;-80
2021/05/29 05:35:37;;;;;;;11.48;5.20;;;;;;;17.80;51.07;100720.47;4845467;28;99629;-86
2021/05/29 05:38:03;;;;;;;5.45;4.47;;;;;;;18.33;50.35;100724.44;4862305;28;97232;-85
2021/05/29 05:40:29;;;;;;;8.90;4.97;;;;;;;18.34;49.62;100720.81;4861637;28;97133;-85
2021/05/29 05:42:54;;;;;;;8.52;4.78;;;;;;;18.59;49.14;100727.28;4878104;28;98396;-85
2021/05/29 05:45:20;;;;;;;6.55;5.07;;;;;;;19.40;48.39;100723.13;4868664;28;98319;-86
2021/05/29 05:47:46;;;;;;;6.68;4.07;;;;;;;20.32;46.68;100718.81;4880249;28;97296;-86
2021/05/29 05:50:12;;;;;;;5.95;3.88;;;;;;;21.33;44.94;100716.19;4879858;28;96926;-81
2021/05/29 05:52:39;;;;;;;9.43;4.15;;;;;;;22.03;42.96;100718.16;4880259;28;100169;-85
2021/05/29 05:55:06;;;;;;;7.72;4.20;;;;;;;23.08;41.22;100725.16;4880373;28;101570;-85
2021/05/29 05:57:32;;;;;;;9.23;4.40;;;;;;;23.62;40.24;100718.97;4879835;28;96722;-86
2021/05/29 05:59:59;;;;;;;8.07;4.72;;;;;;;24.39;38.30;100715.22;4880938;28;96926;-86
2021/05/29 06:02:25;;;;;;;6.30;4.75;;;;;;;24.79;37.40;100718.00;4863973;28;100349;-84
2021/05/29 06:04:51;;;;;;;8.15;6.78;;;;;;;25.49;36.32;100728.88;4861404;28;104294;-85
2021/05/29 06:07:17;;;;;;;4.30;3.80;;;;;;;25.93;35.31;100732.88;4876607;28;98533;-87
2021/05/29 06:09:42;;;;;;;6.45;4.20;;;;;;;26.53;34.69;100732.72;4897299;28;96847;-86
2021/05/29 06:12:08;;;;;;;6.05;4.05;;;;;;;27.31;32.82;100727.88;4863825;28;100265;-87
2021/05/29 06:20:04;;;;;;;7.45;4.32;;;;;;;28.13;32.32;100728.72;4897275;28;96591;-86
2021/05/29 06:22:31;;;;;;;5.10;3.90;;;;;;;28.04;31.92;100728.78;4878952;28;101542;-85
2021/05/29 06:24:57;;;;;;;4.85;3.45;;;;;;;27.97;31.99;100729.41;4894743;28;97887;-86
2021/05/29 06:27:23;;;;;;;8.43;4.40;;;;;;;27.32;32.70;100731.44;4889960;28;97372;-86
2021/05/29 06:29:49;;;;;;;4.75;3.30;;;;;;;27.69;32.67;100727.75;4877327;28;97010;-84
2021/05/29 06:32:14;;;;;;;6.28;3.47;;;;;;;27.90;32.57;100727.50;4868954;28;101675;-81
2021/05/29 06:34:40;;;;;;;7.68;4.50;;;;;;;27.31;33.17;100735.09;4887148;28;100219;-86
2021/05/29 06:37:06;;;;;;;5.32;4.07;;;;;;;27.98;32.11;100722.16;4869650;28;97279;-86
2021/05/29 06:39:32;;;;;;;5.93;3.63;;;;;;;27.96;31.93;100722.31;4871406;28;96878;-86
2021/05/29 06:41:58;;;;;;;5.15;3.83;;;;;;;28.77;31.03;100723.06;4887712;28;101556;-86
2021/05/29 06:44:24;;;;;;;6.95;3.97;;;;;;;30.23;30.55;100717.25;4865095;28;99959;-86
2021/05/29 06:46:49;;;;;;;4.85;3.10;;;;;;;29.53;30.52;100714.94;4883019;28;97329;-82
2021/05/29 06:49:18;;;;;;;4.63;4.00;;;;;;;29.78;30.47;100712.31;4884503;28;97043;-84
2021/05/29 06:59:47;;;;;;;4.97;3.58;;;;;;;25.89;34.05;100718.03;4891813;28;97201;-87
2021/05/29 07:02:12;;;;;;;5.28;3.22;;;;;;;26.93;33.31;100725.34;4867598;28;101711;-82
2021/05/29 07:04:38;;;;;;;5.60;3.03;;;;;;;26.24;34.58;100721.09;4878664;28;100507;-86
2021/05/29 07:07:04;;;;;;;3.83;3.38;;;;;;;24.65;36.41;100723.72;4904600;28;96931;-87
2021/05/29 07:09:29;;;;;;;4.60;3.10;;;;;;;24.09;37.10;100724.06;4892778;28;97275;-85
2021/05/29 07:11:55;;;;;;;5.93;2.83;;;;;;;23.04;38.46;100727.25;4885613;28;97625;-86
2021/05/29 07:14:20;;;;;;;3.35;2.30;;;;;;;22.91;38.13;100733.66;4885399;28;101670;-86
2021/05/29 07:16:50;;;;;;;5.85;2.92;;;;;;;22.34;39.06;100730.03;4881823;28;97310;-86
2021/05/29 07:19:16;;;;;;;6.13;3.22;;;;;;;22.00;39.30;100724.56;4866111;28;96980;-80
2021/05/29 07:21:41;;;;;;;5.45;2.90;;;;;;;21.78;39.74;100724.47;4863845;28;100517;-88
2021/05/29 07:24:07;;;;;;;4.97;3.20;;;;;;;21.41;41.00;100722.72;4863873;28;101474;-86
2021/05/29 07:26:33;;;;;;;8.80;7.00;;;;;;;21.05;41.63;100733.34;4877827;28;96887;-84
2021/05/29 07:28:59;;;;;;;3.83;3.42;;;;;;;20.45;42.91;100733.03;4893613;28;96837;-85
2021/05/29 07:31:24;;;;;;;4.88;3.50;;;;;;;20.48;43.08;100737.31;4865802;28;100445;-87
2021/05/29 07:33:53;;;;;;;4.15;3.00;;;;;;;20.28;43.73;100728.00;4903996;28;98760;-85
2021/05/29 07:36:19;;;;;;;6.63;2.80;;;;;;;20.14;44.43;100734.25;4884383;28;96800;-85
2021/05/29 07:38:44;;;;;;;4.90;3.40;;;;;;;20.09;43.70;100729.22;4870662;28;96943;-86
2021/05/29 07:41:11;;;;;;;8.63;3.08;;;;;;;19.97;43.61;100734.53;4887276;28;100786;-86
2021/05/29 07:43:36;;;;;;;4.28;2.38;;;;;;;19.93;43.48;100735.72;4883433;28;100835;-83
2021/05/29 07:46:03;;;;;;;9.65;7.25;;;;;;;19.89;43.27;100730.56;4873167;28;99836;-80
2021/05/29 07:48:29;;;;;;;5.30;2.67;;;;;;;19.89;43.51;100730.56;4871756;28;97013;-86
2021/05/29 07:50:58;;;;;;;4.85;2.80;;;;;;;19.89;43.54;100735.03;4856081;28;101220;-85
2021/05/29 07:53:28;;;;;;;8.95;2.92;;;;;;;19.60;43.79;100729.78;4880949;28;98076;-85
2021/05/29 07:55:55;;;;;;;3.55;2.67;;;;;;;19.60;44.88;100727.13;4874043;28;97128;-85
2021/05/29 07:58:20;;;;;;;5.13;2.97;;;;;;;19.56;45.08;100733.59;4876244;28;96969;-85
2021/05/29 08:00:51;;;;;;;3.28;2.75;;;;;;;19.43;45.95;100733.56;4861111;28;101077;-85
2021/05/29 08:03:18;;;;;;;4.63;3.40;;;;;;;19.22;47.61;100734.91;4881017;28;97500;-85
2021/05/29 08:05:43;;;;;;;7.90;3.42;;;;;;;18.98;48.20;100758.59;4860271;28;96722;-86
2021/05/29 08:08:09;;;;;;;11.02;3.60;;;;;;;18.72;49.07;100750.38;4869556;28;96906;-82
2021/05/29 08:10:35;;;;;;;6.80;3.03;;;;;;;18.61;48.50;100752.00;4875542;28;101736;-86
2021/05/29 08:13:01;;;;;;;4.88;2.88;;;;;;;18.81;48.36;100750.81;4876197;28;98486;-86
2021/05/29 08:15:27;;;;;;;3.25;2.53;;;;;;;19.38;46.36;100746.31;4875963;28;96730;-85
2021/05/29 08:17:52;;;;;;;6.50;2.75;;;;;;;20.23;44.98;100748.78;4876324;28;97397;-85
2021/05/29 08:20:18;;;;;;;5.80;2.70;;;;;;;20.92;43.65;100742.22;4875615;28;100975;-83
2021/05/29 08:22:43;;;;;;;7.15;2.47;;;;;;;21.54;42.42;100741.34;4892176;28;101996;-87
2021/05/29 08:25:09;;;;;;;4.00;2.72;;;;;;;21.62;41.95;100733.63;4844394;28;96749;-82
2021/05/29 08:27:35;;;;;;;5.68;2.17;;;;;;;21.66;42.14;100737.78;4876627;28;96929;-84
2021/05/29 08:30:02;;;;;;;6.20;2.55;;;;;;;21.34;42.09;100744.59;4887419;28;98048;-86
2021/05/29 08:32:28;;;;;;;3.97;2.85;;;;;;;22.34;40.47;100743.41;4846227;28;101505;-86
2021/05/29 08:34:53;;;;;;;3.60;2.35;;;;;;;21.67;41.02;100736.81;4894528;28;97252;-87
2021/05/29 08:37:19;;;;;;;6.05;2.60;;;;;;;21.20;41.91;100741.09;4872430;28;97132;-80
2021/05/29 08:39:44;;;;;;;4.05;2.85;;;;;;;20.63;43.00;100744.25;4880870;28;100587;-86
2021/05/29 08:42:11;;;;;;;4.68;2.97;;;;;;;20.15;44.07;100743.09;4878946;28;97998;-85
2021/05/29 08:44:37;;;;;;;9.02;3.20;;;;;;;19.98;44.58;100744.22;4875162;28;96814;-85
2021/05/29 08:47:03;;;;;;;6.28;3.10;;;;;;;19.55;44.14;100731.91;4876169;28;96877;-83
2021/05/29 08:49:29;;;;;;;3.95;2.58;;;;;;;19.17;44.97;100737.03;4875048;28;98096;-85
2021/05/29 08:51:57;;;;;;;5.38;2.80;;;;;;;18.90;45.53;100745.78;4875640;28;101607;-83
2021/05/29 08:54:28;;;;;;;3.53;2.50;;;;;;;18.64;46.35;100743.84;4876253;28;96681;-85
2021/05/29 08:56:53;;;;;;;7.90;2.92;;;;;;;18.45;46.92;100739.63;4860690;28;96959;-86
2021/05/29 08:59:19;;;;;;;3.00;2.50;;;;;;;18.33;47.66;100737.72;4861809;28;101654;-84
2021/05/29 09:01:44;;;;;;;5.47;2.50;;;;;;;18.18;49.41;100739.50;4886081;28;100928;-85
2021/05/29 09:04:10;;;;;;;4.38;2.75;;;;;;;18.17;50.49;100740.41;4900626;28;97011;-85
2021/05/29 09:06:38;;;;;;;4.32;2.97;;;;;;;18.28;51.07;100753.06;4865989;28;97645;-85
2021/05/29 09:09:09;;;;;;;4.50;3.10;;;;;;;18.71;51.21;100754.00;4868396;28;98388;-85
2021/05/29 09:11:37;;;;;;;3.88;2.60;;;;;;;20.25;48.72;100745.06;4861018;28;100570;-83
2021/05/29 09:14:39;;;;;;;2.88;2.17;;;;;;;20.78;45.98;100745.00;4904418;28;97633;-84
2021/05/29 09:17:21;;;;;;;5.28;2.30;;;;;;;21.31;44.78;100737.66;4900484;28;97328;-86
2021/05/29 09:20:01;;;;;;;5.00;2.65;;;;;;;21.52;44.76;100745.09;4916164;28;98525;-85
2021/05/29 09:22:49;;;;;;;3.22;2.25;;;;;;;21.32;44.04;100731.38;4880083;28;98127;-85
2021/05/29 09:25:22;;;;;;;4.53;2.85;;;;;;;21.31;43.66;100745.66;4878620;28;96813;-84
2021/05/29 09:27:55;;;;;;;4.82;2.28;;;;;;;21.25;43.55;100744.28;4862003;28;97026;-83
2021/05/29 09:30:46;;;;;;;2.70;2.22;;;;;;;21.08;43.21;100743.78;4845366;28;101124;-81
2021/05/29 09:33:22;;;;;;;5.45;2.35;;;;;;;21.17;42.33;100737.78;4846850;28;101433;-85
2021/05/29 09:36:10;;;;;;;3.45;2.38;;;;;;;20.93;43.73;100733.25;4862511;28;96614;-86
2021/05/29 09:38:45;;;;;;;7.90;3.22;;;;;;;20.92;43.48;100739.56;4861891;28;96909;-88
2021/05/29 09:41:37;;;;;;;5.07;2.70;;;;;;;21.08;43.53;100739.31;4862212;28;101752;-88
2021/05/29 09:44:06;;;;;;;7.25;3.35;;;;;;;21.14;44.25;100738.00;4865538;28;98347;-88
2021/05/29 09:46:52;;;;;;;4.47;2.80;;;;;;;21.24;43.34;100731.91;4876856;28;97359;-88
2021/05/29 09:49:18;;;;;;;7.30;3.00;;;;;;;21.14;42.94;100735.34;4861803;28;97220;-87
2021/05/29 09:51:44;;;;;;;7.07;3.10;;;;;;;21.24;42.71;100726.56;4867872;28;99999;-88
2021/05/29 09:54:10;;;;;;;4.07;2.70;;;;;;;20.89;43.34;100721.09;4885767;28;97280;-88
2021/05/29 09:56:45;;;;;;;5.03;2.78;;;;;;;21.09;44.17;100721.47;4876657;28;97692;-87
2021/05/29 09:59:20;;;;;;;4.28;2.38;;;;;;;20.97;44.15;100718.75;4876956;28;96837;-85
2021/05/29 10:01:52;;;;;;;9.15;3.20;;;;;;;20.76;44.11;100729.09;4844156;28;98962;-83
2021/05/29 10:04:27;;;;;;;3.72;2.63;;;;;;;20.94;42.87;100721.63;4875954;28;101063;-83
2021/05/29 10:06:55;;;;;;;7.28;2.83;;;;;;;20.71;44.02;100728.59;4876346;28;96888;-82
2021/05/29 10:09:21;;;;;;;3.65;2.58;;;;;;;20.49;44.06;100717.66;4860525;28;97378;-82
2021/05/29 10:11:46;;;;;;;5.32;3.20;;;;;;;20.69;44.59;100724.31;4859107;28;99191;-82
2021/05/29 10:14:12;;;;;;;8.20;3.17;;;;;;;20.69;43.65;100721.66;4860167;28;99565;-83
2021/05/29 10:16:38;;;;;;;4.50;2.40;;;;;;;20.86;43.37;100717.81;4876966;28;96915;-86
2021/05/29 10:19:06;;;;;;;4.35;2.83;;;;;;;20.79;43.67;100715.53;4861554;28;97011;-82
2021/05/29 10:21:32;;;;;;;4.60;2.63;;;;;;;20.83;44.49;100710.88;4874959;28;98183;-82
2021/05/29 10:23:59;;;;;;;3.33;3.00;;;;;;;20.90;43.77;100713.94;4859870;28;101486;-82
2021/05/29 10:26:28;;;;;;;6.25;3.10;;;;;;;20.78;44.06;100713.00;4859377;28;96865;-80
2021/05/29 10:28:54;;;;;;;4.38;3.13;;;;;;;20.33;44.36;100708.06;4859500;28;96916;-82
2021/05/29 10:31:22;;;;;;;5.60;3.35;;;;;;;20.27;44.51;100713.78;4858675;28;101321;-82
2021/05/29 10:33:48;;;;;;;4.35;3.10;;;;;;;20.12;44.75;100709.50;4843360;28;102368;-82
2021/05/29 10:36:35;;;;;;;5.57;3.30;;;;;;;19.87;45.39;100707.66;4844680;28;96715;-83
2021/05/29 10:39:01;;;;;;;5.85;3.55;;;;;;;19.53;46.71;100703.66;4860379;28;96994;-83
2021/05/29 10:42:00;;;;;;;5.47;3.83;;;;;;;19.17;48.25;100700.63;4859342;28;101396;-81
2021/05/29 10:44:41;;;;;;;5.72;4.00;;;;;;;19.03;48.77;100703.31;4855363;28;101105;-79
2021/05/29 10:47:16;;;;;;;4.45;3.55;;;;;;;18.79;49.56;100705.69;4875396;28;96749;-79
2021/05/29 10:49:50;;;;;;;5.68;4.00;;;;;;;18.68;49.74;100711.66;4873695;28;97387;-82
2021/05/29 10:52:32;;;;;;;5.40;3.53;;;;;;;18.57;49.94;100715.94;4890295;28;101104;-82
2021/05/29 10:55:16;;;;;;;5.00;3.70;;;;;;;18.58;49.33;100713.16;4891139;28;101117;-82
2021/05/29 10:57:54;;;;;;;12.25;4.90;;;;;;;18.46;49.51;100714.75;4874807;28;97200;-84
2021/05/29 11:00:35;;;;;;;5.90;4.25;;;;;;;18.48;49.65;100707.56;4875800;28;96963;-83
2021/05/29 11:03:16;;;;;;;10.98;3.60;;;;;;;18.35;49.16;100711.03;4875329;28;102186;-82
2021/05/29 11:05:49;;;;;;;5.15;2.20;;;;;;;18.23;47.40;100709.97;4890516;28;101053;-83
2021/05/29 11:08:47;;;;;;;2.00;1.73;;;;;;;17.90;47.97;100723.47;4874759;28;96759;-83
2021/05/29 11:14:25;;;;;;;3.97;1.67;;;;;;;17.63;49.31;100722.28;4893249;28;101255;-82
2021/05/29 11:16:54;;;;;;;3.10;1.35;;;;;;;17.53;47.71;100722.88;4893567;28;101401;-82
2021/05/29 11:19:27;;;;;;;1.20;1.10;;;;;;;17.47;47.97;100710.81;4878197;28;96932;-82
2021/05/29 11:22:12;;;;;;;3.13;1.55;;;;;;;17.33;48.07;100710.72;4894377;28;96725;-83
2021/05/29 11:24:50;;;;;;;4.00;2.30;;;;;;;17.29;47.35;100703.88;4877180;28;100792;-83
2021/05/29 11:27:27;;;;;;;10.50;2.55;;;;;;;17.47;48.43;100702.84;4894230;28;100965;-83
2021/05/29 11:30:08;;;;;;;5.53;1.77;;;;;;;17.76;48.42;100705.63;4852392;28;96821;-82
2021/05/29 11:33:17;;;;;;;5.80;1.90;;;;;;;18.09;48.63;100711.66;4858685;28;97130;-82
2021/05/29 11:35:45;;;;;;;5.28;2.00;;;;;;;18.14;48.44;100698.09;4876326;28;101864;-83
2021/05/29 11:38:13;;;;;;;4.82;2.33;;;;;;;18.43;49.63;100696.34;4862952;28;101779;-83
2021/05/29 11:40:39;;;;;;;2.65;1.75;;;;;;;18.58;48.48;100691.03;4862168;28;97143;-83
2021/05/29 11:43:04;;;;;;;4.82;2.25;;;;;;;18.64;48.03;100691.50;4879896;28;97748;-82
2021/05/29 11:45:30;;;;;;;5.75;2.15;;;;;;;18.73;49.46;100679.44;4878229;28;97263;-78